Time;durP1;ratioP1;P1;durP2;ratioP2;P2;SDS_P1;SDS_P2;PMS_P1;PMS_P2;Temp;Humidity;BMP_temperature;BMP_pressure;BME280_temperature;BME280_humidity;BME280_pressure;Samples;Min_cycle;Max_cycle;Signal;HPM_P1;HPM_P2
2021/04/07 00:00:07;;;;;;;30.58;18.08;;;;;;;;;;765624;180;917384;-73
2021/04/07 00:02:33;;;;;;;34.60;18.83;;;;;;;;;;767153;181;918413;-73
2021/04/07 00:04:59;;;;;;;25.97;16.83;;;;;;;;;;763418;180;919973;-74
2021/04/07 00:07:24;;;;;;;30.33;16.58;;;;;;;;;;753133;180;2936132;-73
2021/04/07 00:09:50;;;;;;;27.83;16.80;;;;;;;;;;773913;180;919062;-74
2021/04/07 00:12:16;;;;;;;30.83;17.45;;;;;;;;;;759350;181;920371;-74
2021/04/07 00:14:42;;;;;;;27.53;15.57;;;;;;;;;;766233;180;1022428;-75
2021/04/07 00:17:08;;;;;;;38.10;18.47;;;;;;;;;;765248;180;915216;-74
2021/04/07 00:19:34;;;;;;;31.70;18.73;;;;;;;;;;769771;181;919092;-75
2021/04/07 00:22:01;;;;;;;32.30;17.43;;;;;;;;;;766874;180;918987;-74
2021/04/07 00:24:27;;;;;;;27.83;16.10;;;;;;;;;;764640;180;918470;-75
2021/04/07 00:26:52;;;;;;;29.50;17.40;;;;;;;;;;770122;181;918945;-73
2021/04/07 00:29:18;;;;;;;28.30;15.37;;;;;;;;;;762015;181;919314;-74
2021/04/07 00:31:44;;;;;;;24.57;14.70;;;;;;;;;;766911;181;919019;-74
2021/04/07 00:34:10;;;;;;;30.73;16.40;;;;;;;;;;772048;180;830359;-74
2021/04/07 00:36:36;;;;;;;24.80;14.60;;;;;;;;;;768913;180;919391;-75
2021/04/07 00:39:02;;;;;;;25.10;15.37;;;;;;;;;;763332;180;919328;-74
2021/04/07 00:41:28;;;;;;;26.25;15.38;;;;;;;;;;766510;180;919244;-74
2021/04/07 00:43:54;;;;;;;25.53;16.47;;;;;;;;;;759065;183;1017592;-74
2021/04/07 00:46:19;;;;;;;24.05;14.43;;;;;;;;;;771522;180;919621;-76
2021/04/07 00:48:45;;;;;;;30.27;16.50;;;;;;;;;;763922;180;918391;-75
2021/04/07 00:51:11;;;;;;;22.33;13.83;;;;;;;;;;769899;181;922513;-75
2021/04/07 00:53:37;;;;;;;24.00;15.57;;;;;;;;;;761172;180;1852196;-75
2021/04/07 00:56:03;;;;;;;22.53;14.90;;;;;;;;;;769318;179;927338;-75
2021/04/07 00:58:29;;;;;;;25.40;14.67;;;;;;;;;;770668;179;918582;-75
2021/04/07 01:00:55;;;;;;;25.73;15.97;;;;;;;;;;770907;178;918741;-75
2021/04/07 01:03:20;;;;;;;23.40;13.77;;;;;;;;;;765588;180;965183;-75
2021/04/07 01:05:46;;;;;;;27.83;14.90;;;;;;;;;;769765;181;917941;-73
2021/04/07 01:08:12;;;;;;;26.65;13.70;;;;;;;;;;767990;180;919180;-74
2021/04/07 01:10:38;;;;;;;20.67;13.43;;;;;;;;;;760925;180;920624;-75
2021/04/07 01:13:04;;;;;;;25.13;15.90;;;;;;;;;;767034;180;915091;-74
2021/04/07 01:15:30;;;;;;;25.47;15.33;;;;;;;;;;768177;180;1699555;-76
2021/04/07 01:17:55;;;;;;;27.23;14.00;;;;;;;;;;763584;180;1023620;-75
2021/04/07 01:20:21;;;;;;;22.47;13.50;;;;;;;;;;762749;180;912440;-75
2021/04/07 01:22:47;;;;;;;25.23;14.87;;;;;;;;;;774522;180;914945;-75
2021/04/07 01:25:13;;;;;;;23.20;13.87;;;;;;;;;;765970;180;913061;-76
2021/04/07 01:27:39;;;;;;;23.23;14.67;;;;;;;;;;752259;180;919368;-76
2021/04/07 01:30:06;;;;;;;28.60;13.65;;;;;;;;;;768216;180;1019010;-75
2021/04/07 01:32:32;;;;;;;29.73;15.00;;;;;;;;;;764887;180;914129;-76
2021/04/07 01:34:58;;;;;;;26.60;14.90;;;;;;;;;;763393;180;910560;-76
2021/04/07 01:37:24;;;;;;;39.93;16.60;;;;;;;;;;767408;180;918202;-75
2021/04/07 01:39:50;;;;;;;27.17;17.10;;;;;;;;;;766171;183;914660;-76
2021/04/07 01:42:16;;;;;;;27.23;16.83;;;;;;;;;;767385;180;901889;-77
2021/04/07 01:44:41;;;;;;;25.43;15.17;;;;;;;;;;768761;180;919443;-76
2021/04/07 01:47:07;;;;;;;24.30;14.03;;;;;;;;;;773848;179;918202;-76
2021/04/07 01:49:33;;;;;;;26.33;15.70;;;;;;;;;;766322;180;919081;-75
2021/04/07 01:51:59;;;;;;;22.10;12.83;;;;;;;;;;764957;180;969513;-76
2021/04/07 01:54:25;;;;;;;25.73;14.80;;;;;;;;;;774000;179;1020798;-76
2021/04/07 01:56:53;;;;;;;25.80;15.00;;;;;;;;;;760454;180;920759;-75
2021/04/07 01:59:19;;;;;;;22.70;13.33;;;;;;;;;;769750;180;920072;-76
2021/04/07 02:01:45;;;;;;;23.70;15.33;;;;;;;;;;760485;179;1133578;-76
2021/04/07 02:04:11;;;;;;;24.10;13.53;;;;;;;;;;771316;180;1023311;-77
2021/04/07 02:06:37;;;;;;;23.57;15.03;;;;;;;;;;766036;180;920776;-76
2021/04/07 02:09:03;;;;;;;32.50;15.30;;;;;;;;;;767650;180;919886;-77
2021/04/07 02:11:29;;;;;;;25.87;15.77;;;;;;;;;;773801;180;918876;-76
2021/04/07 02:13:55;;;;;;;26.90;15.80;;;;;;;;;;768912;180;916049;-77
2021/04/07 02:16:21;;;;;;;27.53;16.43;;;;;;;;;;768611;180;916816;-76
2021/04/07 02:18:47;;;;;;;26.27;16.07;;;;;;;;;;767571;181;953584;-76
2021/04/07 02:21:12;;;;;;;33.78;15.60;;;;;;;;;;762034;180;919874;-75
2021/04/07 02:23:38;;;;;;;32.07;17.73;;;;;;;;;;762513;180;1020843;-75
2021/04/07 02:26:04;;;;;;;29.58;16.83;;;;;;;;;;764961;180;919364;-75
2021/04/07 02:28:30;;;;;;;27.37;16.73;;;;;;;;;;765000;182;919154;-77
2021/04/07 02:30:56;;;;;;;29.97;17.87;;;;;;;;;;767901;180;919253;-77
2021/04/07 02:33:22;;;;;;;29.23;16.67;;;;;;;;;;763558;180;918676;-77
2021/04/07 02:35:48;;;;;;;23.90;15.27;;;;;;;;;;772979;180;919045;-77
2021/04/07 02:38:13;;;;;;;29.47;16.40;;;;;;;;;;766188;180;1019646;-76
2021/04/07 02:40:39;;;;;;;29.40;16.53;;;;;;;;;;748085;184;918897;-77
2021/04/07 02:43:05;;;;;;;29.10;15.80;;;;;;;;;;758872;180;3538426;-76
2021/04/07 02:45:31;;;;;;;28.43;15.50;;;;;;;;;;763998;180;1021905;-77
2021/04/07 02:47:57;;;;;;;34.43;17.70;;;;;;;;;;761160;180;1021926;-76
2021/04/07 02:50:23;;;;;;;26.43;15.70;;;;;;;;;;765075;180;919084;-76
2021/04/07 02:52:49;;;;;;;26.97;16.83;;;;;;;;;;765584;180;917996;-75
2021/04/07 02:55:14;;;;;;;29.20;16.20;;;;;;;;;;763872;180;1086252;-77
2021/04/07 02:57:40;;;;;;;27.63;17.77;;;;;;;;;;764789;180;1019657;-77
2021/04/07 03:00:07;;;;;;;34.03;17.70;;;;;;;;;;757789;183;918116;-76
2021/04/07 03:02:33;;;;;;;28.40;15.47;;;;;;;;;;770167;180;917426;-75
2021/04/07 03:04:59;;;;;;;26.57;14.50;;;;;;;;;;763894;181;918354;-75
2021/04/07 03:07:24;;;;;;;26.43;16.93;;;;;;;;;;772757;180;921601;-77
2021/04/07 03:09:50;;;;;;;24.93;14.87;;;;;;;;;;762912;181;919719;-76
2021/04/07 03:12:16;;;;;;;25.83;16.77;;;;;;;;;;766876;180;914057;-75
2021/04/07 03:14:42;;;;;;;27.73;16.57;;;;;;;;;;771749;180;918489;-76
2021/04/07 03:17:08;;;;;;;37.80;17.50;;;;;;;;;;772076;180;921787;-77
2021/04/07 03:19:34;;;;;;;28.33;16.27;;;;;;;;;;764215;180;1020973;-75
2021/04/07 03:21:59;;;;;;;26.37;15.30;;;;;;;;;;769936;178;919038;-75
2021/04/07 03:24:25;;;;;;;29.17;15.63;;;;;;;;;;759438;182;1021937;-77
2021/04/07 03:26:51;;;;;;;26.43;15.30;;;;;;;;;;772812;180;918025;-76
2021/04/07 03:29:17;;;;;;;25.63;14.13;;;;;;;;;;760886;180;1698921;-76
2021/04/07 03:31:43;;;;;;;23.77;14.50;;;;;;;;;;770643;180;915312;-77
2021/04/07 03:34:09;;;;;;;25.85;14.85;;;;;;;;;;765731;180;919540;-77
2021/04/07 03:36:34;;;;;;;30.07;16.30;;;;;;;;;;764494;180;918508;-77
2021/04/07 03:39:00;;;;;;;26.90;15.40;;;;;;;;;;770935;180;1018175;-77
2021/04/07 03:41:26;;;;;;;24.60;14.63;;;;;;;;;;767770;180;918169;-78
2021/04/07 03:43:52;;;;;;;23.47;13.20;;;;;;;;;;766189;180;918706;-76
2021/04/07 03:46:18;;;;;;;22.30;13.60;;;;;;;;;;770495;180;917055;-77
2021/04/07 03:48:44;;;;;;;29.33;15.83;;;;;;;;;;767053;181;918612;-77
2021/04/07 03:51:09;;;;;;;25.43;16.50;;;;;;;;;;760151;180;1724248;-76
2021/04/07 03:53:35;;;;;;;25.37;14.23;;;;;;;;;;766748;180;919677;-76
2021/04/07 03:56:01;;;;;;;23.80;14.70;;;;;;;;;;764248;180;918239;-76
2021/04/07 03:58:27;;;;;;;20.33;13.67;;;;;;;;;;763109;180;926810;-77
2021/04/07 04:00:53;;;;;;;24.03;15.87;;;;;;;;;;760650;180;924737;-77
2021/04/07 04:03:19;;;;;;;26.30;14.90;;;;;;;;;;769763;180;919044;-78
2021/04/07 04:05:45;;;;;;;29.30;14.10;;;;;;;;;;762652;180;1021076;-77
2021/04/07 04:08:10;;;;;;;23.37;13.97;;;;;;;;;;751781;180;921569;-77
2021/04/07 04:10:36;;;;;;;21.70;14.40;;;;;;;;;;771671;180;919547;-77
2021/04/07 04:13:02;;;;;;;23.97;15.33;;;;;;;;;;768509;180;920171;-78
2021/04/07 04:15:28;;;;;;;27.30;14.70;;;;;;;;;;766671;180;989376;-75
2021/04/07 04:17:54;;;;;;;25.83;14.37;;;;;;;;;;762830;180;918482;-73
2021/04/07 04:20:20;;;;;;;26.33;13.85;;;;;;;;;;765134;181;917253;-78
2021/04/07 04:22:46;;;;;;;23.07;14.70;;;;;;;;;;764729;180;919387;-78
2021/04/07 04:25:12;;;;;;;22.83;13.00;;;;;;;;;;767602;180;921132;-77
2021/04/07 04:27:38;;;;;;;27.42;14.15;;;;;;;;;;772073;180;922010;-78
2021/04/07 04:30:04;;;;;;;23.57;13.43;;;;;;;;;;764309;180;918392;-77
2021/04/07 04:32:30;;;;;;;26.17;14.67;;;;;;;;;;765416;180;1019009;-78
2021/04/07 04:34:56;;;;;;;25.03;14.27;;;;;;;;;;772269;181;918941;-77
2021/04/07 04:37:22;;;;;;;20.93;13.07;;;;;;;;;;764115;180;996282;-77
2021/04/07 04:39:48;;;;;;;26.95;13.90;;;;;;;;;;765650;181;918998;-78
2021/04/07 04:42:13;;;;;;;25.00;13.87;;;;;;;;;;773417;179;1020962;-77
2021/04/07 04:44:39;;;;;;;24.43;13.03;;;;;;;;;;771035;180;919735;-77
2021/04/07 04:47:06;;;;;;;22.63;13.27;;;;;;;;;;767177;180;919610;-78
2021/04/07 04:49:32;;;;;;;21.23;10.20;;;;;;;;;;765493;180;918447;-77
2021/04/07 04:51:58;;;;;;;17.53;12.50;;;;;;;;;;774448;181;918297;-76
2021/04/07 04:54:24;;;;;;;23.30;12.75;;;;;;;;;;767517;180;917524;-78
2021/04/07 04:56:50;;;;;;;21.33;12.10;;;;;;;;;;767961;180;919292;-77
2021/04/07 04:59:16;;;;;;;16.70;11.33;;;;;;;;;;773177;180;780007;-77
2021/04/07 05:01:41;;;;;;;22.20;13.00;;;;;;;;;;769694;180;918719;-78
2021/04/07 05:04:07;;;;;;;17.17;11.60;;;;;;;;;;767654;180;914041;-78
2021/04/07 05:06:33;;;;;;;26.40;13.67;;;;;;;;;;772147;180;915616;-78
2021/04/07 05:08:59;;;;;;;18.57;10.87;;;;;;;;;;763843;180;917080;-77
2021/04/07 05:11:25;;;;;;;25.92;12.13;;;;;;;;;;766159;180;917577;-77
2021/04/07 05:13:51;;;;;;;19.33;12.40;;;;;;;;;;763764;180;915321;-76
2021/04/07 05:16:16;;;;;;;21.23;12.87;;;;;;;;;;772650;180;913675;-78
2021/04/07 05:18:42;;;;;;;20.10;12.90;;;;;;;;;;763057;180;1416833;-78
2021/04/07 05:21:08;;;;;;;20.10;10.30;;;;;;;;;;766562;180;911452;-77
2021/04/07 05:23:34;;;;;;;17.35;11.10;;;;;;;;;;776118;180;903140;-76
2021/04/07 05:26:00;;;;;;;18.60;11.07;;;;;;;;;;761763;179;916283;-77
2021/04/07 05:28:26;;;;;;;18.02;10.70;;;;;;;;;;768431;180;916695;-78
2021/04/07 05:33:23;;;;;;;19.00;10.33;;;;;;;;;;768288;183;893493;-78
2021/04/07 05:35:49;;;;;;;18.70;11.43;;;;;;;;;;766102;180;916065;-78
2021/04/07 05:38:17;;;;;;;21.90;12.80;;;;;;;;;;774015;180;624942;-79
2021/04/07 05:40:41;;;;;;;20.40;11.23;;;;;;;;;;773021;180;647755;-79
2021/04/07 05:43:07;;;;;;;16.83;11.43;;;;;;;;;;772247;180;650845;-78
2021/04/07 05:45:32;;;;;;;22.60;13.35;;;;;;;;;;764435;179;1218559;-78
2021/04/07 05:47:58;;;;;;;15.43;11.67;;;;;;;;;;773926;180;787927;-79
2021/04/07 05:50:24;;;;;;;26.17;12.83;;;;;;;;;;769370;180;634194;-77
2021/04/07 05:52:50;;;;;;;17.70;11.43;;;;;;;;;;771869;180;621974;-76
2021/04/07 05:55:16;;;;;;;20.77;10.73;;;;;;;;;;771554;180;619477;-76
2021/04/07 05:57:42;;;;;;;24.10;13.40;;;;;;;;;;770751;180;634544;-78
2021/04/07 06:00:08;;;;;;;19.63;11.00;;;;;;;;;;767530;180;628100;-78
2021/04/07 06:02:34;;;;;;;23.83;12.40;;;;;;;;;;773737;180;859587;-78
2021/04/07 06:04:59;;;;;;;24.50;12.13;;;;;;;;;;781499;180;641630;-78
2021/04/07 06:07:25;;;;;;;19.33;11.03;;;;;;;;;;771584;180;657115;-80
2021/04/07 06:09:51;;;;;;;16.10;10.03;;;;;;;;;;771112;180;617587;-80
2021/04/07 06:12:17;;;;;;;20.50;11.50;;;;;;;;;;771729;181;623116;-81
2021/04/07 06:14:43;;;;;;;17.50;11.57;;;;;;;;;;770678;180;634388;-79
2021/04/07 06:17:09;;;;;;;15.27;11.27;;;;;;;;;;764760;181;638798;-79
2021/04/07 06:19:34;;;;;;;18.10;10.67;;;;;;;;;;773264;181;665898;-79
2021/04/07 06:22:00;;;;;;;16.93;8.70;;;;;;;;;;770861;180;613247;-78
2021/04/07 06:24:26;;;;;;;16.00;10.43;;;;;;;;;;770384;180;636933;-77
2021/04/07 06:26:52;;;;;;;15.50;7.83;;;;;;;;;;769101;180;695112;-77
2021/04/07 06:29:18;;;;;;;19.17;9.97;;;;;;;;;;764953;182;696041;-76
2021/04/07 06:31:44;;;;;;;21.20;10.70;;;;;;;;;;770345;180;630634;-77
2021/04/07 06:34:09;;;;;;;12.87;7.67;;;;;;;;;;770695;180;909086;-75
2021/04/07 06:36:35;;;;;;;16.17;9.60;;;;;;;;;;773532;180;813712;-75
2021/04/07 06:39:01;;;;;;;12.17;7.30;;;;;;;;;;771087;180;623035;-73
2021/04/07 06:41:27;;;;;;;15.27;5.30;;;;;;;;;;770813;180;634021;-75
2021/04/07 06:43:53;;;;;;;14.90;8.20;;;;;;;;;;771486;180;630707;-75
2021/04/07 06:46:19;;;;;;;13.80;9.03;;;;;;;;;;771548;180;627266;-74
2021/04/07 06:48:45;;;;;;;24.33;10.47;;;;;;;;;;768402;180;627180;-77
2021/04/07 06:51:10;;;;;;;17.23;10.07;;;;;;;;;;774538;180;648074;-75
2021/04/07 06:53:36;;;;;;;24.00;12.70;;;;;;;;;;769278;183;623822;-77
2021/04/07 06:56:02;;;;;;;21.63;13.93;;;;;;;;;;772264;178;1018417;-76
2021/04/07 06:58:28;;;;;;;21.67;12.60;;;;;;;;;;770083;180;753272;-75
2021/04/07 07:00:54;;;;;;;23.33;14.63;;;;;;;;;;777144;180;631795;-75
2021/04/07 07:03:20;;;;;;;24.37;14.43;;;;;;;;;;769003;180;620120;-75
2021/04/07 07:05:46;;;;;;;22.60;14.27;;;;;;;;;;766248;180;642946;-75
2021/04/07 07:08:13;;;;;;;26.27;14.20;;;;;;;;;;777982;180;621230;-76
2021/04/07 07:10:39;;;;;;;25.33;14.13;;;;;;;;;;771451;180;618675;-76
2021/04/07 07:13:06;;;;;;;23.17;14.50;;;;;;;;;;771664;180;825426;-76
2021/04/07 07:15:32;;;;;;;22.57;13.50;;;;;;;;;;775359;180;616237;-76
2021/04/07 07:17:58;;;;;;;30.67;16.10;;;;;;;;;;768552;180;919407;-76
2021/04/07 07:20:25;;;;;;;22.37;14.77;;;;;;;;;;770033;180;815548;-76
2021/04/07 07:22:51;;;;;;;24.03;14.10;;;;;;;;;;764291;181;816182;-75
2021/04/07 07:25:16;;;;;;;17.50;11.20;;;;;;;;;;773772;180;918256;-75
2021/04/07 07:27:42;;;;;;;21.83;14.00;;;;;;;;;;770275;180;636891;-78
2021/04/07 07:30:08;;;;;;;13.93;9.47;;;;;;;;;;772005;180;632468;-76
2021/04/07 07:32:34;;;;;;;9.53;5.83;;;;;;;;;;775117;180;628491;-76
2021/04/07 07:35:06;;;;;;;31.43;19.70;;;;;;;;;;771538;180;634201;-73
2021/04/07 07:37:32;;;;;;;23.20;14.00;;;;;;;;;;769447;180;918942;-74
2021/04/07 07:39:58;;;;;;;33.50;16.17;;;;;;;;;;771312;180;654278;-74
2021/04/07 07:42:24;;;;;;;27.70;17.10;;;;;;;;;;775115;180;629079;-74
2021/04/07 07:44:50;;;;;;;27.70;15.50;;;;;;;;;;767174;180;649262;-74
2021/04/07 07:47:23;;;;;;;20.33;13.33;;;;;;;;;;768690;180;618231;-74
2021/04/07 07:49:49;;;;;;;23.17;12.27;;;;;;;;;;771121;180;630839;-73
2021/04/07 07:52:15;;;;;;;25.07;15.30;;;;;;;;;;771542;180;633165;-73
2021/04/07 07:54:41;;;;;;;27.03;15.37;;;;;;;;;;769667;180;629086;-73
2021/04/07 07:57:07;;;;;;;21.50;13.20;;;;;;;;;;771503;180;630530;-74
2021/04/07 07:59:34;;;;;;;17.07;11.97;;;;;;;;;;775567;180;624221;-74
2021/04/07 08:01:59;;;;;;;23.80;12.13;;;;;;;;;;771523;180;623538;-72
2021/04/07 08:04:25;;;;;;;13.57;10.00;;;;;;;;;;771838;180;621453;-73
2021/04/07 08:06:51;;;;;;;11.00;7.90;;;;;;;;;;773620;180;639628;-75
2021/04/07 08:09:17;;;;;;;14.30;8.93;;;;;;;;;;770502;180;624286;-72
2021/04/07 08:11:43;;;;;;;13.60;10.67;;;;;;;;;;769628;180;916120;-75
2021/04/07 08:14:09;;;;;;;16.93;10.93;;;;;;;;;;773763;179;915780;-74
2021/04/07 08:16:36;;;;;;;14.53;10.53;;;;;;;;;;768887;180;621124;-73
2021/04/07 08:19:00;;;;;;;15.07;11.18;;;;;;;;;;769583;180;766833;-73
2021/04/07 08:21:26;;;;;;;20.67;11.47;;;;;;;;;;767816;180;718467;-74
2021/04/07 08:23:53;;;;;;;16.03;10.17;;;;;;;;;;776626;180;618698;-75
2021/04/07 08:26:19;;;;;;;16.10;10.80;;;;;;;;;;775866;180;629609;-74
2021/04/07 08:28:45;;;;;;;14.20;9.80;;;;;;;;;;771902;180;645362;-74
2021/04/07 08:31:11;;;;;;;11.93;7.90;;;;;;;;;;773239;180;634981;-72
2021/04/07 08:33:37;;;;;;;14.10;9.23;;;;;;;;;;772987;180;632624;-73
2021/04/07 08:36:03;;;;;;;10.93;7.23;;;;;;;;;;767265;180;616854;-75
2021/04/07 08:38:30;;;;;;;10.87;7.57;;;;;;;;;;775114;180;631436;-72
2021/04/07 08:40:56;;;;;;;18.40;8.40;;;;;;;;;;766387;180;836312;-71
2021/04/07 08:43:22;;;;;;;14.40;8.40;;;;;;;;;;769041;180;613900;-73
2021/04/07 08:45:48;;;;;;;14.93;7.70;;;;;;;;;;768392;180;621935;-73
2021/04/07 08:48:19;;;;;;;15.00;8.90;;;;;;;;;;774741;180;614349;-71
2021/04/07 08:50:46;;;;;;;7.83;6.97;;;;;;;;;;770752;180;613536;-73
2021/04/07 08:53:12;;;;;;;9.17;6.50;;;;;;;;;;772359;181;646003;-73
2021/04/07 08:55:38;;;;;;;11.50;7.73;;;;;;;;;;771862;180;624086;-72
2021/04/07 08:58:04;;;;;;;9.90;6.15;;;;;;;;;;761717;180;624777;-75
2021/04/07 09:00:29;;;;;;;10.40;4.90;;;;;;;;;;767598;180;918490;-75
2021/04/07 09:02:55;;;;;;;13.20;5.80;;;;;;;;;;766124;180;998902;-73
2021/04/07 09:05:27;;;;;;;9.63;5.90;;;;;;;;;;772796;180;620564;-73
2021/04/07 09:07:53;;;;;;;7.10;5.77;;;;;;;;;;767954;180;651363;-75
2021/04/07 09:10:19;;;;;;;9.03;6.87;;;;;;;;;;769411;180;630456;-72
2021/04/07 09:12:48;;;;;;;10.67;7.00;;;;;;;;;;769741;180;617289;-72
2021/04/07 09:15:15;;;;;;;12.70;7.10;;;;;;;;;;769557;183;622489;-73
2021/04/07 09:17:42;;;;;;;10.60;7.77;;;;;;;;;;769576;180;624020;-75
2021/04/07 09:20:08;;;;;;;11.40;7.20;;;;;;;;;;771370;179;644569;-72
2021/04/07 09:22:34;;;;;;;12.80;8.50;;;;;;;;;;774507;180;642081;-73
2021/04/07 09:25:00;;;;;;;14.77;7.57;;;;;;;;;;771841;180;632865;-74
2021/04/07 09:27:26;;;;;;;17.50;8.20;;;;;;;;;;766569;180;649380;-74
2021/04/07 09:29:52;;;;;;;16.13;7.23;;;;;;;;;;774390;180;620768;-73
2021/04/07 09:32:17;;;;;;;9.33;6.43;;;;;;;;;;773745;180;682855;-75
2021/04/07 09:34:43;;;;;;;10.33;7.33;;;;;;;;;;771603;180;617537;-73
2021/04/07 09:37:09;;;;;;;10.53;6.77;;;;;;;;;;768964;180;638317;-73
2021/04/07 09:39:35;;;;;;;9.83;7.00;;;;;;;;;;763893;183;669651;-74
2021/04/07 09:42:01;;;;;;;13.33;6.97;;;;;;;;;;772898;180;640072;-75
2021/04/07 09:44:27;;;;;;;8.20;6.33;;;;;;;;;;771866;180;630932;-72
2021/04/07 09:46:56;;;;;;;11.77;7.10;;;;;;;;;;774439;180;646991;-75
2021/04/07 09:49:21;;;;;;;7.87;6.50;;;;;;;;;;773866;179;642662;-73
2021/04/07 09:51:49;;;;;;;9.23;6.47;;;;;;;;;;768584;180;628943;-73
2021/04/07 09:54:18;;;;;;;6.83;5.33;;;;;;;;;;771331;180;628386;-75
2021/04/07 09:57:02;;;;;;;9.00;5.57;;;;;;;;;;768997;183;771648;-73
2021/04/07 09:59:42;;;;;;;12.10;7.27;;;;;;;;;;768707;183;614709;-74
2021/04/07 10:02:09;;;;;;;8.93;5.70;;;;;;;;;;772458;183;627255;-74
2021/04/07 10:04:35;;;;;;;7.73;4.73;;;;;;;;;;768166;180;733619;-74
2021/04/07 10:07:07;;;;;;;6.00;3.20;;;;;;;;;;769245;180;675246;-73
2021/04/07 10:09:32;;;;;;;7.37;4.97;;;;;;;;;;771051;180;682460;-76
2021/04/07 10:11:58;;;;;;;7.87;5.80;;;;;;;;;;772702;180;629818;-75
2021/04/07 10:14:24;;;;;;;5.43;4.20;;;;;;;;;;765851;180;627099;-75
2021/04/07 10:16:50;;;;;;;7.97;5.50;;;;;;;;;;767506;181;640406;-74
2021/04/07 10:19:16;;;;;;;3.77;3.07;;;;;;;;;;764915;181;632872;-75
2021/04/07 10:21:45;;;;;;;9.23;2.93;;;;;;;;;;769639;180;917578;-77
2021/04/07 10:24:09;;;;;;;4.47;2.90;;;;;;;;;;768553;180;646342;-75
2021/04/07 10:26:42;;;;;;;3.43;2.23;;;;;;;;;;772643;180;614672;-75
2021/04/07 10:29:09;;;;;;;8.50;2.93;;;;;;;;;;764414;180;1271717;-75
2021/04/07 10:31:34;;;;;;;6.00;3.20;;;;;;;;;;775050;178;659400;-76
2021/04/07 10:34:03;;;;;;;6.80;3.03;;;;;;;;;;772394;180;632193;-76
2021/04/07 10:36:29;;;;;;;6.57;3.57;;;;;;;;;;775033;180;815409;-73
2021/04/07 10:38:55;;;;;;;5.50;3.70;;;;;;;;;;768013;180;919340;-75
2021/04/07 10:41:20;;;;;;;7.60;4.60;;;;;;;;;;768571;180;666193;-74
2021/04/07 10:43:46;;;;;;;6.43;4.30;;;;;;;;;;774881;180;634351;-73
2021/04/07 10:46:12;;;;;;;7.37;4.90;;;;;;;;;;771820;180;626751;-75
2021/04/07 10:48:39;;;;;;;5.63;3.83;;;;;;;;;;771658;180;631250;-75
2021/04/07 10:51:05;;;;;;;6.60;5.03;;;;;;;;;;770077;180;640388;-73
2021/04/07 10:53:32;;;;;;;10.90;4.70;;;;;;;;;;770433;182;634659;-74
2021/04/07 10:55:57;;;;;;;7.93;4.90;;;;;;;;;;768088;180;672469;-74
2021/04/07 10:58:24;;;;;;;8.03;5.50;;;;;;;;;;741604;187;636646;-75
2021/04/07 11:00:50;;;;;;;6.53;4.47;;;;;;;;;;735029;187;790772;-73
2021/04/07 11:03:16;;;;;;;3.33;2.77;;;;;;;;;;739908;186;918997;-75
2021/04/07 11:05:42;;;;;;;6.27;2.93;;;;;;;;;;757113;184;632828;-75
2021/04/07 11:08:08;;;;;;;5.80;4.27;;;;;;;;;;758527;184;628400;-75
2021/04/07 11:10:40;;;;;;;3.53;2.13;;;;;;;;;;752357;184;636317;-75
2021/04/07 11:13:06;;;;;;;3.83;2.73;;;;;;;;;;768004;181;626611;-74
2021/04/07 11:15:31;;;;;;;9.85;2.67;;;;;;;;;;766969;180;680169;-74
2021/04/07 11:17:57;;;;;;;3.20;2.20;;;;;;;;;;775083;180;629683;-74
2021/04/07 11:20:23;;;;;;;3.63;2.47;;;;;;;;;;770595;180;629498;-72
2021/04/07 11:22:49;;;;;;;4.10;3.03;;;;;;;;;;766369;180;643220;-75
2021/04/07 11:25:15;;;;;;;4.33;3.30;;;;;;;;;;775780;179;629460;-74
2021/04/07 11:27:41;;;;;;;6.50;3.97;;;;;;;;;;770642;180;666984;-76
2021/04/07 11:30:07;;;;;;;6.55;3.40;;;;;;;;;;772187;180;918203;-76
2021/04/07 11:32:37;;;;;;;6.53;3.30;;;;;;;;;;767040;180;918410;-72
2021/04/07 11:35:07;;;;;;;5.73;3.60;;;;;;;;;;768637;180;623754;-74
2021/04/07 11:37:41;;;;;;;11.17;4.10;;;;;;;;;;771896;180;665723;-75
2021/04/07 11:40:04;;;;;;;5.13;4.20;;;;;;;;;;763735;180;641921;-75
2021/04/07 11:42:28;;;;;;;4.23;3.00;;;;;;;;;;771294;178;632991;-76
2021/04/07 11:44:51;;;;;;;6.50;4.13;;;;;;;;;;772420;180;626639;-74
2021/04/07 11:47:17;;;;;;;4.10;3.17;;;;;;;;;;769115;180;615555;-73
2021/04/07 11:49:43;;;;;;;7.87;5.63;;;;;;;;;;774339;180;628183;-73
2021/04/07 11:52:11;;;;;;;6.67;2.90;;;;;;;;;;769562;180;615625;-73
2021/04/07 11:54:34;;;;;;;5.62;2.97;;;;;;;;;;772368;179;723937;-75
2021/04/07 11:57:01;;;;;;;4.73;3.40;;;;;;;;;;762390;180;1221325;-75
2021/04/07 11:59:27;;;;;;;6.57;3.60;;;;;;;;;;776007;180;630187;-74
2021/04/07 12:01:54;;;;;;;4.90;2.30;;;;;;;;;;770942;179;633134;-71
2021/04/07 12:04:20;;;;;;;3.60;2.10;;;;;;;;;;771506;180;657916;-73
2021/04/07 12:06:44;;;;;;;3.60;2.13;;;;;;;;;;774082;180;616494;-72
2021/04/07 12:09:10;;;;;;;4.33;3.33;;;;;;;;;;766461;180;634002;-71
2021/04/07 12:11:36;;;;;;;4.75;3.55;;;;;;;;;;767610;180;644834;-72
2021/04/07 12:14:02;;;;;;;4.05;2.80;;;;;;;;;;770161;180;619068;-71
2021/04/07 12:16:29;;;;;;;5.00;2.80;;;;;;;;;;766292;183;628365;-73
2021/04/07 12:18:55;;;;;;;4.30;2.90;;;;;;;;;;774011;180;630150;-75
2021/04/07 12:21:20;;;;;;;4.17;3.27;;;;;;;;;;774727;180;640407;-74
2021/04/07 12:23:48;;;;;;;8.93;3.67;;;;;;;;;;773285;180;661919;-73
2021/04/07 12:26:15;;;;;;;6.33;3.80;;;;;;;;;;769583;180;625916;-73
2021/04/07 12:28:43;;;;;;;7.30;4.37;;;;;;;;;;768629;180;636089;-75
2021/04/07 12:31:10;;;;;;;4.80;3.83;;;;;;;;;;772193;180;628346;-73
2021/04/07 12:33:35;;;;;;;4.30;2.90;;;;;;;;;;772239;180;628951;-73
2021/04/07 12:36:03;;;;;;;4.50;3.53;;;;;;;;;;773301;180;634940;-75
2021/04/07 12:38:31;;;;;;;3.33;2.50;;;;;;;;;;768514;180;937797;-73
2021/04/07 12:40:57;;;;;;;5.53;3.17;;;;;;;;;;770741;180;712488;-75
2021/04/07 12:43:20;;;;;;;4.30;3.30;;;;;;;;;;768971;180;641257;-76
2021/04/07 12:45:46;;;;;;;2.90;2.10;;;;;;;;;;764769;180;763340;-74
2021/04/07 12:48:12;;;;;;;5.33;2.07;;;;;;;;;;777344;180;618452;-74
2021/04/07 12:50:37;;;;;;;3.03;1.70;;;;;;;;;;769016;180;621975;-74
2021/04/07 12:53:03;;;;;;;3.60;1.97;;;;;;;;;;767896;180;619105;-75
2021/04/07 12:55:30;;;;;;;2.40;1.37;;;;;;;;;;774702;178;640828;-73
2021/04/07 12:57:56;;;;;;;8.50;2.40;;;;;;;;;;774407;179;653962;-73
2021/04/07 13:00:22;;;;;;;4.30;2.50;;;;;;;;;;773847;180;640306;-72
2021/04/07 13:02:48;;;;;;;4.40;2.77;;;;;;;;;;772821;180;635323;-73
2021/04/07 13:05:13;;;;;;;3.90;2.17;;;;;;;;;;776087;180;613640;-73
2021/04/07 13:07:39;;;;;;;2.95;1.62;;;;;;;;;;771654;180;627694;-74
2021/04/07 13:10:05;;;;;;;5.90;3.20;;;;;;;;;;770134;180;637929;-73
2021/04/07 13:12:31;;;;;;;6.50;3.73;;;;;;;;;;774893;180;642843;-74
2021/04/07 13:14:58;;;;;;;4.77;2.83;;;;;;;;;;768215;180;617939;-73
2021/04/07 13:17:23;;;;;;;5.57;3.03;;;;;;;;;;769151;180;920195;-74
2021/04/07 13:19:52;;;;;;;5.93;3.50;;;;;;;;;;776102;180;636914;-72
2021/04/07 13:22:18;;;;;;;4.40;3.23;;;;;;;;;;770843;180;628835;-73
2021/04/07 13:24:43;;;;;;;3.33;2.37;;;;;;;;;;770079;180;640511;-74
2021/04/07 13:27:09;;;;;;;6.03;2.77;;;;;;;;;;766695;180;668264;-74
2021/04/07 13:29:35;;;;;;;5.30;3.47;;;;;;;;;;776499;180;625611;-73
2021/04/07 13:32:03;;;;;;;7.20;4.17;;;;;;;;;;764695;180;665814;-74
2021/04/07 13:34:35;;;;;;;5.13;2.63;;;;;;;;;;769021;180;638978;-72
2021/04/07 13:37:02;;;;;;;6.13;4.50;;;;;;;;;;769861;180;615673;-73
2021/04/07 13:39:24;;;;;;;5.50;4.00;;;;;;;;;;769112;180;616751;-72
2021/04/07 13:44:30;;;;;;;5.40;3.50;;;;;;;;;;769885;180;623564;-73
2021/04/07 13:46:56;;;;;;;5.23;3.27;;;;;;;;;;768943;180;627038;-73
2021/04/07 13:49:25;;;;;;;4.93;2.93;;;;;;;;;;764796;182;621622;-75
2021/04/07 13:51:48;;;;;;;3.97;3.23;;;;;;;;;;769589;180;717660;-73
2021/04/07 13:54:14;;;;;;;2.43;1.57;;;;;;;;;;768766;180;654237;-74
2021/04/07 13:56:51;;;;;;;4.33;2.90;;;;;;;;;;770002;180;631282;-76
2021/04/07 13:59:08;;;;;;;3.50;2.50;;;;;;;;;;767194;180;635391;-75
2021/04/07 14:01:34;;;;;;;3.20;2.50;;;;;;;;;;767839;180;630417;-76
2021/04/07 14:04:00;;;;;;;6.17;4.30;;;;;;;;;;771041;180;635449;-74
2021/04/07 14:06:25;;;;;;;10.13;5.70;;;;;;;;;;772722;180;636818;-74
2021/04/07 14:08:53;;;;;;;9.77;5.20;;;;;;;;;;771504;180;621858;-73
2021/04/07 14:11:19;;;;;;;3.53;3.17;;;;;;;;;;771563;180;659929;-72